Time;durP1;ratioP1;P1;durP2;ratioP2;P2;SDS_P1;SDS_P2;PMS_P1;PMS_P2;Temp;Humidity;BMP_temperature;BMP_pressure;BME280_temperature;BME280_humidity;BME280_pressure;Samples;Min_cycle;Max_cycle;Signal;HPM_P1;HPM_P2
2022/05/28 00:00:07;;;;;;;4.80;1.00;;;;;;;9.36;62.99;99626.59;130626;1268;108611;-81
2022/05/28 00:03:33;;;;;;;3.70;0.90;;;;;;;9.35;63.01;99620.88;130382;1268;110384;-78
2022/05/28 00:06:39;;;;;;;3.40;0.80;;;;;;;9.34;63.24;99620.02;130371;1268;108895;-78
2022/05/28 00:09:44;;;;;;;3.10;0.90;;;;;;;9.38;63.24;99619.48;130358;1268;108762;-79
2022/05/28 00:12:50;;;;;;;5.00;1.60;;;;;;;9.42;63.30;99620.64;130418;1267;108540;-79
2022/05/28 00:15:55;;;;;;;1.90;0.90;;;;;;;9.47;63.22;99618.17;130430;1266;107624;-78
2022/05/28 00:19:01;;;;;;;4.00;0.80;;;;;;;9.52;63.16;99621.76;130378;1268;108865;-78
2022/05/28 00:22:07;;;;;;;2.10;0.80;;;;;;;9.52;63.23;99624.11;130443;1268;107638;-78
2022/05/28 00:25:16;;;;;;;3.80;0.90;;;;;;;9.51;63.20;99624.39;130369;1268;108677;-79
2022/05/28 00:28:22;;;;;;;1.90;0.90;;;;;;;9.48;63.23;99615.77;130479;1268;108787;-79
2022/05/28 00:31:28;;;;;;;4.40;0.90;;;;;;;9.47;63.41;99618.08;130426;1268;108765;-79
2022/05/28 00:34:34;;;;;;;2.30;0.80;;;;;;;9.43;63.43;99621.55;130301;1268;108575;-79
2022/05/28 00:37:40;;;;;;;2.60;0.80;;;;;;;9.39;63.42;99619.67;130389;1267;108600;-81
2022/05/28 00:40:51;;;;;;;2.70;1.00;;;;;;;9.36;63.53;99615.64;130492;1268;108725;-81
2022/05/28 00:43:56;;;;;;;3.80;1.10;;;;;;;9.29;63.72;99617.92;130504;1268;108685;-80
2022/05/28 00:47:02;;;;;;;2.20;1.00;;;;;;;9.23;63.83;99615.66;130585;1266;107726;-80
2022/05/28 00:50:09;;;;;;;4.00;0.90;;;;;;;9.20;63.85;99612.83;130518;1266;108566;-80
2022/05/28 00:53:16;;;;;;;2.10;0.80;;;;;;;9.16;63.88;99611.36;130396;1268;108149;-79
2022/05/28 00:56:22;;;;;;;4.60;0.90;;;;;;;9.11;64.17;99611.98;130447;1268;108720;-78
2022/05/28 00:59:28;;;;;;;1.80;0.90;;;;;;;9.05;64.23;99610.11;130371;1267;269613;-76
2022/05/28 01:02:44;;;;;;;2.40;0.90;;;;;;;9.00;64.20;99608.52;130515;1268;108941;-78
2022/05/28 01:05:53;;;;;;;2.40;0.80;;;;;;;8.96;64.39;99606.61;130523;1268;108878;-77
2022/05/28 01:09:03;;;;;;;3.30;0.80;;;;;;;8.98;64.52;99604.27;130325;1268;108715;-79
2022/05/28 01:12:14;;;;;;;3.50;0.80;;;;;;;9.03;64.56;99605.18;130384;1266;108676;-77
2022/05/28 01:15:24;;;;;;;1.90;0.80;;;;;;;9.08;64.52;99607.51;130443;1268;108697;-77
2022/05/28 01:18:38;;;;;;;1.70;0.80;;;;;;;9.10;64.37;99600.89;130413;1268;108726;-78
2022/05/28 01:21:53;;;;;;;2.40;0.90;;;;;;;9.12;64.51;99594.88;130404;1268;108764;-76
2022/05/28 01:25:09;;;;;;;6.50;0.80;;;;;;;9.19;64.62;99597.14;130423;1268;108933;-77
2022/05/28 01:28:20;;;;;;;3.20;1.00;;;;;;;9.25;64.45;99594.73;130403;1267;108697;-78
2022/05/28 01:31:29;;;;;;;3.40;1.00;;;;;;;9.27;64.67;99592.17;130410;1268;108745;-78
2022/05/28 01:34:35;;;;;;;2.50;0.90;;;;;;;9.31;64.79;99583.60;130427;1268;108811;-79
2022/05/28 01:37:44;;;;;;;2.60;0.90;;;;;;;9.35;64.87;99584.94;130249;1267;108757;-81
2022/05/28 01:40:52;;;;;;;4.30;0.90;;;;;;;9.39;65.02;99582.30;130233;1268;109755;-77
2022/05/28 01:43:59;;;;;;;2.70;0.90;;;;;;;9.42;64.79;99585.10;130393;1266;108864;-78
2022/05/28 01:47:04;;;;;;;5.10;1.00;;;;;;;9.44;65.03;99575.23;130359;1268;108900;-77
2022/05/28 01:50:15;;;;;;;2.50;0.90;;;;;;;9.48;65.05;99570.48;130375;1268;107086;-79
2022/05/28 01:56:57;;;;;;;2.50;0.90;;;;;;;9.61;64.99;99557.78;130330;1266;108920;-81
2022/05/28 02:00:03;;;;;;;2.80;0.80;;;;;;;9.65;64.90;99548.43;130381;1268;108742;-81
2022/05/28 02:03:10;;;;;;;4.10;1.50;;;;;;;9.65;64.94;99545.76;130388;1268;108731;-77
2022/05/28 02:06:16;;;;;;;2.50;1.20;;;;;;;9.65;65.12;99546.16;130437;1268;108817;-76
2022/05/28 02:09:25;;;;;;;2.10;0.90;;;;;;;9.60;65.05;99548.98;130340;1267;108622;-78
2022/05/28 02:12:33;;;;;;;2.50;1.00;;;;;;;9.55;65.21;99550.27;130401;1268;108843;-82
2022/05/28 02:15:44;;;;;;;2.40;0.80;;;;;;;9.48;65.22;99547.92;130292;1268;107717;-80
2022/05/28 02:18:56;;;;;;;1.90;0.90;;;;;;;9.44;65.36;99551.00;130402;1266;108758;-76
2022/05/28 02:22:11;;;;;;;3.10;1.20;;;;;;;9.41;65.32;99555.11;130338;1268;106920;-79
2022/05/28 02:25:21;;;;;;;2.50;1.00;;;;;;;9.33;65.43;99553.05;130384;1266;108659;-82
2022/05/28 02:28:32;;;;;;;2.50;1.00;;;;;;;9.26;65.67;99554.70;130514;1266;108646;-81
2022/05/28 02:31:37;;;;;;;3.70;1.30;;;;;;;9.19;65.70;99552.22;130463;1266;108738;-79
2022/05/28 02:34:45;;;;;;;3.50;1.10;;;;;;;9.15;65.82;99550.90;130370;1268;107657;-76
2022/05/28 02:37:50;;;;;;;3.00;1.10;;;;;;;9.17;65.95;99546.98;130397;1268;108816;-79
2022/05/28 02:40:56;;;;;;;6.90;1.30;;;;;;;9.24;65.90;99543.02;130494;1268;108773;-82
2022/05/28 02:44:02;;;;;;;3.40;1.00;;;;;;;9.31;65.81;99538.17;130552;1267;109061;-83
2022/05/28 02:47:08;;;;;;;4.00;1.10;;;;;;;9.37;65.67;99531.04;130515;1268;108732;-82
2022/05/28 02:50:14;;;;;;;2.80;1.10;;;;;;;9.40;65.61;99532.30;130551;1268;108666;-84
2022/05/28 02:53:20;;;;;;;6.80;1.40;;;;;;;9.42;65.64;99532.58;130365;1268;107750;-79
2022/05/28 02:56:25;;;;;;;2.50;1.10;;;;;;;9.49;65.71;99532.02;130446;1268;108651;-78
2022/05/28 02:59:31;;;;;;;2.50;1.20;;;;;;;9.56;65.79;99530.64;130385;1267;109159;-81
2022/05/28 03:02:37;;;;;;;1.90;1.10;;;;;;;9.58;65.80;99535.37;130421;1268;108969;-79
2022/05/28 03:05:42;;;;;;;3.20;1.00;;;;;;;9.53;65.59;99535.83;130410;1268;106928;-79
2022/05/28 03:08:47;;;;;;;3.80;1.20;;;;;;;9.51;65.78;99538.63;130295;1268;108744;-78
2022/05/28 03:11:53;;;;;;;3.30;1.10;;;;;;;9.50;65.68;99534.48;130294;1268;108678;-79
2022/05/28 03:14:59;;;;;;;3.00;1.40;;;;;;;9.55;66.01;99522.85;130350;1268;108880;-79
2022/05/28 03:18:05;;;;;;;3.90;1.40;;;;;;;9.60;65.70;99530.31;130365;1268;107701;-79
2022/05/28 03:21:10;;;;;;;3.50;1.30;;;;;;;9.65;65.72;99537.24;130293;1268;107585;-78
2022/05/28 03:24:16;;;;;;;3.00;1.30;;;;;;;9.72;65.92;99537.02;130271;1268;108652;-76
2022/05/28 03:27:22;;;;;;;3.00;1.20;;;;;;;9.82;66.12;99532.77;130329;1267;108915;-76
2022/05/28 03:30:27;;;;;;;3.50;1.50;;;;;;;10.02;65.89;99530.44;130334;1268;108920;-77
2022/05/28 03:33:33;;;;;;;3.50;1.30;;;;;;;10.21;65.61;99533.11;130232;1268;108691;-77
2022/05/28 03:36:38;;;;;;;3.90;1.30;;;;;;;10.31;65.54;99530.13;130331;1268;108739;-76
2022/05/28 03:39:44;;;;;;;3.60;1.00;;;;;;;10.33;65.29;99524.23;130336;1267;106693;-76
2022/05/28 03:42:49;;;;;;;3.00;1.20;;;;;;;10.39;65.51;99525.85;130297;1268;108491;-76
2022/05/28 03:45:55;;;;;;;3.30;1.10;;;;;;;10.47;65.70;99526.38;130300;1268;108935;-76
2022/05/28 03:49:03;;;;;;;5.30;1.30;;;;;;;10.54;65.55;99528.65;130469;1268;108841;-76
2022/05/28 03:52:10;;;;;;;3.40;1.20;;;;;;;10.57;65.68;99530.41;130414;1268;108682;-77
2022/05/28 03:55:15;;;;;;;5.10;1.30;;;;;;;10.57;65.49;99535.73;130417;1268;108671;-76
2022/05/28 03:58:21;;;;;;;2.70;1.20;;;;;;;10.57;65.64;99538.81;130208;1268;108591;-77
2022/05/28 04:01:26;;;;;;;4.40;1.40;;;;;;;10.58;65.56;99539.90;130340;1268;108931;-76
2022/05/28 04:04:32;;;;;;;2.80;1.60;;;;;;;10.61;65.60;99541.40;130305;1268;108694;-77
2022/05/28 04:07:38;;;;;;;3.50;1.20;;;;;;;10.67;65.29;99543.80;130234;1268;108672;-77
2022/05/28 04:10:43;;;;;;;4.10;1.40;;;;;;;10.72;65.56;99546.21;130301;1267;108835;-76
2022/05/28 04:13:50;;;;;;;6.50;1.30;;;;;;;10.74;65.31;99547.46;130482;1266;108647;-77
2022/05/28 04:16:55;;;;;;;2.60;1.00;;;;;;;10.72;65.28;99541.80;130427;1268;107631;-77
2022/05/28 04:20:01;;;;;;;2.20;0.80;;;;;;;10.73;65.48;99545.80;130455;1268;108874;-77
2022/05/28 04:23:07;;;;;;;3.30;1.30;;;;;;;10.77;65.42;99542.26;130395;1267;108786;-77
2022/05/28 04:26:12;;;;;;;3.00;1.10;;;;;;;10.84;65.09;99538.66;130401;1267;108766;-77
2022/05/28 04:29:18;;;;;;;1.60;1.10;;;;;;;10.97;65.11;99543.81;130449;1267;108761;-77
2022/05/28 04:32:23;;;;;;;3.20;1.00;;;;;;;10.99;65.05;99546.72;130434;1266;108714;-77
2022/05/28 04:35:29;;;;;;;3.40;1.50;;;;;;;11.02;64.68;99544.54;130508;1268;108795;-76
2022/05/28 04:38:35;;;;;;;3.90;1.30;;;;;;;11.03;64.95;99546.09;130497;1268;108748;-77
2022/05/28 04:41:40;;;;;;;3.50;1.20;;;;;;;11.10;64.78;99547.54;130312;1268;108702;-75
2022/05/28 04:44:45;;;;;;;3.10;1.00;;;;;;;11.20;65.19;99544.57;130473;1268;108577;-77
2022/05/28 04:47:51;;;;;;;2.90;0.90;;;;;;;11.53;64.73;99547.23;130505;1268;108965;-76
2022/05/28 04:50:56;;;;;;;2.80;1.00;;;;;;;11.86;64.09;99550.33;130604;1267;108695;-76
2022/05/28 04:54:02;;;;;;;2.60;0.80;;;;;;;11.96;63.84;99543.35;130901;1268;109654;-77
2022/05/28 04:57:08;;;;;;;2.60;0.80;;;;;;;12.05;63.89;99541.94;130462;1266;108670;-77
2022/05/28 05:00:18;;;;;;;3.70;0.80;;;;;;;12.18;63.19;99545.52;130716;1267;108602;-76
2022/05/28 05:03:23;;;;;;;3.30;1.20;;;;;;;12.17;63.13;99546.05;130493;1268;108832;-80
2022/05/28 05:06:29;;;;;;;4.80;1.10;;;;;;;12.18;62.15;99548.32;130596;1267;107595;-80
2022/05/28 05:09:34;;;;;;;3.30;1.00;;;;;;;12.12;61.81;99551.61;130465;1268;108544;-79
2022/05/28 05:12:40;;;;;;;1.20;0.80;;;;;;;12.18;62.04;99548.91;130475;1267;108793;-77
2022/05/28 05:15:45;;;;;;;3.00;0.80;;;;;;;12.46;61.83;99546.86;130465;1267;108647;-78
2022/05/28 05:18:51;;;;;;;2.20;0.80;;;;;;;12.50;60.68;99546.41;130639;1267;108732;-78
2022/05/28 05:21:57;;;;;;;4.40;1.40;;;;;;;12.43;59.15;99544.59;130502;1268;108839;-80
2022/05/28 05:25:04;;;;;;;3.90;1.10;;;;;;;12.30;60.78;99543.66;130489;1268;108717;-77
2022/05/28 05:28:10;;;;;;;4.30;1.00;;;;;;;12.42;60.85;99542.41;130411;1268;108940;-77
2022/05/28 05:31:15;;;;;;;3.20;1.20;;;;;;;12.52;61.60;99545.61;130610;1267;108667;-77
2022/05/28 05:34:21;;;;;;;3.80;1.50;;;;;;;12.68;61.87;99545.52;130469;1267;107688;-77
2022/05/28 05:37:27;;;;;;;2.70;1.40;;;;;;;12.76;61.68;99543.36;130540;1267;108803;-76
2022/05/28 05:40:32;;;;;;;3.80;1.70;;;;;;;12.72;61.76;99544.33;130517;1267;108815;-78
2022/05/28 05:43:39;;;;;;;2.90;1.40;;;;;;;12.57;61.99;99544.89;130615;1268;108681;-78
2022/05/28 05:46:45;;;;;;;4.70;1.30;;;;;;;12.45;61.63;99543.84;130491;1268;108846;-79
2022/05/28 05:49:51;;;;;;;3.40;1.10;;;;;;;12.34;61.72;99546.34;130598;1266;108881;-79
2022/05/28 05:52:56;;;;;;;3.60;1.40;;;;;;;12.44;61.71;99547.52;130497;1267;107073;-79
2022/05/28 05:56:02;;;;;;;4.60;1.40;;;;;;;12.44;60.87;99557.38;130684;1267;108784;-77
2022/05/28 05:59:07;;;;;;;2.50;1.20;;;;;;;12.27;61.19;99560.44;130739;1267;108878;-80
2022/05/28 06:02:13;;;;;;;3.90;1.30;;;;;;;12.24;59.85;99554.14;130688;1267;108758;-79
2022/05/28 06:05:19;;;;;;;3.80;1.10;;;;;;;12.17;59.29;99551.36;130674;1268;108843;-77
2022/05/28 06:08:24;;;;;;;2.50;1.00;;;;;;;12.14;59.54;99547.48;130812;1267;108990;-77
2022/05/28 06:11:30;;;;;;;4.20;1.30;;;;;;;12.26;59.85;99552.36;130285;1267;107760;-77
2022/05/28 06:14:35;;;;;;;2.50;0.90;;;;;;;12.40;59.68;99549.24;130425;1268;108606;-78
2022/05/28 06:17:41;;;;;;;3.00;1.40;;;;;;;12.56;59.02;99556.45;130366;1268;108836;-78
2022/05/28 06:20:49;;;;;;;1.30;0.80;;;;;;;12.70;58.14;99547.09;130385;1268;108693;-78
2022/05/28 06:23:55;;;;;;;2.10;0.90;;;;;;;12.84;58.07;99538.77;130506;1267;108638;-81
2022/05/28 06:27:02;;;;;;;2.10;0.90;;;;;;;12.88;57.60;99537.95;130457;1268;108531;-81
2022/05/28 06:30:11;;;;;;;3.40;1.10;;;;;;;13.02;56.83;99538.80;130539;1266;108916;-80
2022/05/28 06:33:17;;;;;;;1.50;0.70;;;;;;;13.07;57.26;99533.30;130388;1267;108806;-81
2022/05/28 06:36:22;;;;;;;2.00;0.80;;;;;;;13.12;57.78;99536.82;130510;1266;108648;-79
2022/05/28 06:39:28;;;;;;;2.60;1.00;;;;;;;13.00;56.38;99546.67;130358;1268;108471;-80
2022/05/28 06:42:33;;;;;;;3.70;1.00;;;;;;;12.88;56.61;99547.39;130332;1268;109645;-78
2022/05/28 06:45:39;;;;;;;3.00;0.90;;;;;;;12.96;57.08;99544.15;130384;1268;108735;-78
2022/05/28 06:48:44;;;;;;;3.40;1.10;;;;;;;12.99;56.38;99542.34;130371;1266;108864;-79
2022/05/28 06:51:52;;;;;;;2.00;0.80;;;;;;;12.99;56.64;99537.89;130369;1267;108633;-79
2022/05/28 06:54:57;;;;;;;4.60;0.90;;;;;;;13.06;55.67;99531.64;130391;1268;108743;-78
2022/05/28 06:58:03;;;;;;;4.40;1.00;;;;;;;13.03;56.17;99531.14;130347;1268;107159;-79
2022/05/28 07:01:09;;;;;;;5.10;1.00;;;;;;;13.09;56.00;99533.28;130305;1268;108552;-78
2022/05/28 07:04:15;;;;;;;2.20;1.10;;;;;;;13.02;55.58;99535.78;130593;1266;108856;-79
2022/05/28 07:07:20;;;;;;;2.80;0.90;;;;;;;13.04;56.76;99536.46;130310;1267;109838;-79
2022/05/28 07:10:26;;;;;;;4.10;1.20;;;;;;;13.03;56.69;99538.14;130257;1268;108718;-77
2022/05/28 07:13:32;;;;;;;2.90;1.00;;;;;;;13.04;56.66;99529.55;130379;1268;108767;-79
2022/05/28 07:16:38;;;;;;;2.90;1.30;;;;;;;13.13;56.54;99530.45;130450;1267;108796;-79
2022/05/28 07:19:43;;;;;;;3.50;1.10;;;;;;;13.36;56.16;99530.40;130379;1268;108877;-79
2022/05/28 07:22:49;;;;;;;4.80;1.10;;;;;;;13.60;56.51;99525.05;130450;1265;108853;-78
2022/05/28 07:26:03;;;;;;;2.90;1.00;;;;;;;13.77;55.47;99525.02;130423;1268;108627;-79
2022/05/28 07:29:08;;;;;;;4.30;1.00;;;;;;;13.69;53.07;99525.52;130564;1267;108885;-80
2022/05/28 07:32:14;;;;;;;5.80;1.00;;;;;;;13.59;54.14;99518.73;130453;1268;107597;-78
2022/05/28 07:35:20;;;;;;;3.90;1.00;;;;;;;13.68;55.10;99527.13;130372;1268;108839;-79
2022/05/28 07:38:27;;;;;;;3.40;1.20;;;;;;;13.73;54.18;99528.31;130236;1268;108788;-78
2022/05/28 07:41:32;;;;;;;3.60;1.00;;;;;;;13.81;54.41;99521.89;130368;1267;108696;-80
2022/05/28 07:44:38;;;;;;;3.80;1.30;;;;;;;13.86;54.63;99527.65;130203;1268;108762;-79
2022/05/28 07:47:43;;;;;;;4.10;1.20;;;;;;;13.93;54.37;99524.55;130339;1267;107589;-79
2022/05/28 07:50:50;;;;;;;1.90;0.90;;;;;;;13.87;54.23;99527.43;130373;1267;108755;-77
2022/05/28 07:53:55;;;;;;;2.70;1.20;;;;;;;13.79;54.14;99528.95;130281;1268;108591;-78
2022/05/28 07:57:01;;;;;;;3.60;1.00;;;;;;;13.74;54.80;99524.58;130356;1268;108937;-78
2022/05/28 08:00:08;;;;;;;6.80;1.20;;;;;;;13.78;55.10;99515.50;130350;1268;108653;-77
2022/05/28 08:03:18;;;;;;;3.80;1.30;;;;;;;13.94;54.65;99517.70;130427;1268;108982;-80
2022/05/28 08:06:24;;;;;;;3.20;1.10;;;;;;;13.94;54.59;99516.71;130365;1268;108815;-77
2022/05/28 08:09:29;;;;;;;3.40;1.00;;;;;;;14.17;53.93;99519.91;130340;1268;107661;-79
2022/05/28 08:12:35;;;;;;;3.40;1.20;;;;;;;14.05;53.64;99510.49;130402;1267;108742;-78
2022/05/28 08:15:42;;;;;;;1.90;0.90;;;;;;;14.03;53.66;99512.61;130371;1268;108969;-77
2022/05/28 08:18:48;;;;;;;2.20;1.10;;;;;;;14.12;54.26;99514.80;130410;1268;108681;-77
2022/05/28 08:25:17;;;;;;;4.00;1.10;;;;;;;14.38;52.58;99506.77;130483;1268;108937;-82
2022/05/28 08:28:23;;;;;;;2.30;1.10;;;;;;;14.46;54.17;99501.75;130438;1268;107688;-80
2022/05/28 08:31:30;;;;;;;3.70;1.10;;;;;;;14.57;52.23;99495.85;130349;1268;108795;-79
2022/05/28 08:34:35;;;;;;;4.00;1.30;;;;;;;14.50;52.68;99500.15;130346;1268;108624;-80
2022/05/28 08:37:41;;;;;;;3.10;1.10;;;;;;;14.33;50.92;99492.91;130331;1268;108790;-78
2022/05/28 08:40:49;;;;;;;4.00;1.20;;;;;;;14.27;52.71;99494.66;130619;1268;108910;-80
2022/05/28 08:44:01;;;;;;;1.90;1.00;;;;;;;14.44;53.08;99489.52;130502;1268;108724;-78
2022/05/28 08:47:16;;;;;;;2.30;0.90;;;;;;;14.68;53.09;99487.03;130379;1268;108698;-76
2022/05/28 08:50:22;;;;;;;2.50;1.10;;;;;;;15.08;53.31;99472.79;130318;1267;109645;-77
2022/05/28 08:53:31;;;;;;;4.00;1.10;;;;;;;15.49;52.79;99471.11;130357;1266;108690;-78
2022/05/28 08:56:37;;;;;;;5.00;1.30;;;;;;;15.68;50.97;99463.81;130391;1267;108796;-78
2022/05/28 08:59:49;;;;;;;3.20;1.10;;;;;;;15.61;51.00;99477.30;130359;1268;107229;-79
2022/05/28 09:02:56;;;;;;;;;;;;;;;15.34;51.18;99480.27;130422;1268;108783;-79
2022/05/28 09:06:05;;;;;;;2.30;1.20;;;;;;;15.07;51.84;99476.70;130399;1267;108849;-77
2022/05/28 09:09:14;;;;;;;4.10;1.10;;;;;;;14.87;52.21;99485.35;130442;1268;108807;-78
2022/05/28 09:12:22;;;;;;;5.60;1.20;;;;;;;14.64;52.32;99487.71;130570;1267;108749;-77
2022/05/28 09:15:28;;;;;;;2.90;1.10;;;;;;;14.30;52.97;99500.33;130396;1268;108678;-78
2022/05/28 09:18:37;;;;;;;2.40;1.10;;;;;;;13.86;54.22;99509.14;130369;1268;108893;-76
2022/05/28 09:21:43;;;;;;;4.60;1.70;;;;;;;13.37;54.90;99515.91;130355;1267;107733;-79
2022/05/28 09:24:49;;;;;;;4.20;1.40;;;;;;;12.91;56.21;99533.42;130449;1267;109257;-76
2022/05/28 09:28:02;;;;;;;4.50;1.30;;;;;;;12.40;56.96;99549.16;130462;1266;108802;-75
2022/05/28 09:31:20;;;;;;;4.60;1.40;;;;;;;12.00;58.32;99557.08;130482;1267;108964;-78
2022/05/28 09:34:47;;;;;;;3.30;1.10;;;;;;;11.60;60.16;99548.05;130404;1268;108735;-78
2022/05/28 09:38:03;;;;;;;4.70;1.40;;;;;;;11.50;59.43;99546.98;130483;1268;108785;-78
2022/05/28 09:41:27;;;;;;;4.00;1.20;;;;;;;11.86;59.52;99546.79;130401;1268;108865;-81
2022/05/28 09:44:46;;;;;;;2.40;1.00;;;;;;;12.50;59.42;99534.66;130399;1266;108950;-77
2022/05/28 09:47:54;;;;;;;2.20;1.10;;;;;;;13.10;59.35;99512.48;130525;1268;108664;-78
2022/05/28 09:50:59;;;;;;;2.70;1.00;;;;;;;13.45;59.05;99516.98;130628;1266;109017;-77
2022/05/28 09:54:20;;;;;;;3.40;1.20;;;;;;;13.71;58.00;99519.90;130561;1268;108523;-79
2022/05/28 09:57:27;;;;;;;5.20;1.30;;;;;;;13.82;57.07;99522.59;130518;1266;108746;-79
2022/05/28 10:00:35;;;;;;;2.10;1.00;;;;;;;13.62;57.27;99530.86;130562;1266;108013;-79
2022/05/28 10:07:08;;;;;;;6.60;1.00;;;;;;;13.25;56.84;99572.22;130513;1268;108671;-80
2022/05/28 10:10:21;;;;;;;1.70;0.70;;;;;;;12.61;56.64;99580.52;130564;1267;108698;-79
2022/05/28 10:13:28;;;;;;;1.00;0.60;;;;;;;12.02;57.96;99587.45;130576;1268;108930;-81
2022/05/28 10:16:39;;;;;;;2.10;0.70;;;;;;;11.57;58.69;99592.92;130410;1266;108666;-82
2022/05/28 10:19:47;;;;;;;0.60;0.40;;;;;;;11.09;59.88;99604.61;130422;1266;107645;-79
2022/05/28 10:22:55;;;;;;;1.20;0.40;;;;;;;10.56;60.84;99610.97;130424;1268;108719;-81
2022/05/28 10:26:01;;;;;;;1.40;0.70;;;;;;;10.32;60.05;99624.48;130419;1267;108715;-80
2022/05/28 10:29:16;;;;;;;1.00;0.60;;;;;;;10.15;60.57;99636.88;130411;1268;108768;-79
2022/05/28 10:32:31;;;;;;;2.10;0.60;;;;;;;9.99;60.89;99638.74;130391;1268;107503;-80
2022/05/28 10:35:37;;;;;;;3.30;0.70;;;;;;;9.97;60.97;99633.98;130336;1266;108864;-80
2022/05/28 10:38:44;;;;;;;4.10;2.80;;;;;;;10.03;61.28;99617.39;130495;1268;108882;-80
2022/05/28 10:41:53;;;;;;;1.40;0.90;;;;;;;10.19;61.82;99593.67;130353;1268;108934;-78
2022/05/28 10:44:59;;;;;;;1.90;1.20;;;;;;;10.50;61.53;99592.73;130432;1267;108693;-79
2022/05/28 10:48:27;;;;;;;1.70;0.80;;;;;;;11.01;61.67;99593.64;130525;1268;108738;-79
2022/05/28 10:51:47;;;;;;;1.40;0.80;;;;;;;11.68;61.61;99582.18;130462;1268;108667;-77
2022/05/28 10:55:04;;;;;;;2.10;0.70;;;;;;;12.21;61.83;99568.41;130428;1267;108741;-78
2022/05/28 10:58:26;;;;;;;1.10;0.60;;;;;;;12.63;62.04;99560.26;130324;1268;108680;-78
2022/05/28 11:01:45;;;;;;;0.90;0.50;;;;;;;13.02;61.91;99555.69;130406;1268;108840;-79
2022/05/28 11:05:02;;;;;;;0.80;0.40;;;;;;;13.44;61.42;99556.69;130345;1268;108532;-78
2022/05/28 11:08:13;;;;;;;1.40;0.70;;;;;;;13.83;61.06;99555.61;130470;1268;108058;-82
2022/05/28 11:11:38;;;;;;;1.40;0.90;;;;;;;14.10;60.85;99545.98;131575;1268;108611;-82
2022/05/28 11:15:11;;;;;;;1.80;0.70;;;;;;;14.29;60.70;99532.15;132035;1266;108751;-84
2022/05/28 11:18:31;;;;;;;;;;;;;;;14.54;61.07;99523.61;130546;1268;107083;-79
2022/05/28 11:21:54;;;;;;;1.00;0.60;;;;;;;14.74;60.82;99520.00;130435;1267;108792;-79
2022/05/28 11:25:05;;;;;;;1.20;0.70;;;;;;;14.96;60.52;99516.84;130434;1268;108909;-79
2022/05/28 11:28:28;;;;;;;1.70;0.60;;;;;;;15.16;60.72;99512.46;130553;1267;109070;-85
2022/05/28 11:31:42;;;;;;;1.50;0.80;;;;;;;15.41;59.56;99500.46;130579;1268;106905;-81
2022/05/28 11:34:52;;;;;;;1.60;0.90;;;;;;;15.46;59.41;99497.66;130560;1268;108555;-81
2022/05/28 11:38:02;;;;;;;1.80;0.70;;;;;;;15.50;59.06;99496.67;130519;1268;108885;-83
2022/05/28 11:41:22;;;;;;;1.10;0.60;;;;;;;15.65;58.78;99492.52;130486;1268;109135;-81
2022/05/28 11:44:34;;;;;;;1.40;0.70;;;;;;;15.74;58.88;99491.35;130428;1268;108724;-81
2022/05/28 11:47:49;;;;;;;1.10;0.60;;;;;;;15.89;58.68;99479.00;130533;1268;108824;-82
2022/05/28 11:54:33;;;;;;;0.90;0.50;;;;;;;15.89;57.25;99477.18;130477;1268;108773;-81
2022/05/28 11:57:44;;;;;;;1.20;0.60;;;;;;;16.05;56.81;99470.89;130712;1267;108656;-81
2022/05/28 12:00:55;;;;;;;1.40;0.70;;;;;;;16.09;56.03;99460.40;130455;1268;108866;-85
2022/05/28 12:04:01;;;;;;;1.10;0.60;;;;;;;16.31;56.72;99454.24;130614;1267;108905;-83
2022/05/28 12:07:10;;;;;;;1.80;0.70;;;;;;;16.27;55.68;99452.05;130432;1268;108707;-79
2022/05/28 12:10:33;;;;;;;1.80;0.70;;;;;;;15.96;54.92;99455.73;130374;1268;108645;-80
2022/05/28 12:13:49;;;;;;;1.40;0.60;;;;;;;15.74;56.06;99448.48;130479;1267;108871;-84
2022/05/28 12:17:03;;;;;;;1.50;0.70;;;;;;;15.60;56.32;99445.93;130491;1268;108661;-83
2022/05/28 12:20:12;;;;;;;2.60;0.60;;;;;;;15.62;56.28;99449.13;130497;1267;108553;-81
2022/05/28 12:23:30;;;;;;;2.20;0.80;;;;;;;15.69;55.75;99451.11;130529;1268;109183;-80
2022/05/28 12:26:49;;;;;;;1.60;0.70;;;;;;;15.60;56.00;99451.23;130519;1267;109021;-81
2022/05/28 12:30:02;;;;;;;2.00;0.80;;;;;;;15.58;56.13;99445.39;130638;1268;108770;-82
2022/05/28 12:33:29;;;;;;;1.30;0.60;;;;;;;15.50;55.96;99449.73;131433;1268;108818;-80
2022/05/28 12:36:44;;;;;;;2.80;0.60;;;;;;;15.33;55.58;99446.06;130429;1268;108931;-79
2022/05/28 12:40:00;;;;;;;1.60;0.60;;;;;;;15.11;55.04;99452.50;130356;1268;108723;-82
2022/05/28 12:43:26;;;;;;;1.10;0.60;;;;;;;14.87;55.08;99460.98;130516;1268;108946;-76
2022/05/28 12:46:45;;;;;;;1.60;0.80;;;;;;;14.58;55.07;99469.09;130406;1267;108981;-76
2022/05/28 12:49:57;;;;;;;2.30;1.00;;;;;;;14.30;55.19;99488.92;130635;1267;108742;-83
2022/05/28 12:53:11;;;;;;;2.90;1.10;;;;;;;13.67;55.70;99545.82;130307;1268;108735;-82
2022/05/28 12:56:25;;;;;;;3.50;2.50;;;;;;;12.63;58.83;99541.44;130655;1267;107662;-82
2022/05/28 12:59:35;;;;;;;2.50;1.20;;;;;;;11.82;62.38;99538.52;130166;1270;331276;-80
2022/05/28 13:02:42;;;;;;;2.00;1.20;;;;;;;11.26;62.46;99527.86;130416;1267;108867;-83
2022/05/28 13:05:53;;;;;;;6.60;5.40;;;;;;;11.03;62.43;99525.21;130408;1268;108871;-84
2022/05/28 13:09:04;;;;;;;13.20;9.90;;;;;;;11.15;61.37;99513.60;130436;1267;108943;-84
2022/05/28 13:12:21;;;;;;;27.40;20.80;;;;;;;11.50;62.57;99524.58;130541;1267;108757;-83
2022/05/28 13:15:54;;;;;;;27.40;22.60;;;;;;;11.55;62.18;99545.92;130518;1267;108879;-79
2022/05/28 13:19:29;;;;;;;9.00;6.60;;;;;;;11.39;62.47;99578.70;130475;1267;108679;-78
2022/05/28 13:22:52;;;;;;;5.40;2.50;;;;;;;11.12;63.42;99538.55;130508;1268;108664;-78
2022/05/28 13:26:26;;;;;;;2.70;1.20;;;;;;;11.25;62.51;99527.59;130735;1268;108949;-78
2022/05/28 13:29:48;;;;;;;2.40;1.50;;;;;;;11.84;62.88;99520.67;130503;1268;108773;-79
2022/05/28 13:32:58;;;;;;;2.60;1.50;;;;;;;12.39;62.66;99517.71;130504;1267;108731;-78
2022/05/28 13:36:06;;;;;;;10.20;7.30;;;;;;;12.37;62.28;99520.15;130381;1268;108650;-75
2022/05/28 13:39:11;;;;;;;71.00;49.70;;;;;;;12.14;62.96;99533.40;130353;1267;108871;-78
2022/05/28 13:42:19;;;;;;;14.40;10.70;;;;;;;11.85;63.30;99585.37;130465;1268;108749;-76
2022/05/28 13:45:27;;;;;;;41.50;28.80;;;;;;;11.43;64.96;99576.19;130499;1268;106868;-78
2022/05/28 13:48:39;;;;;;;13.40;9.40;;;;;;;11.20;64.75;99547.05;130391;1268;109171;-78
2022/05/28 13:51:52;;;;;;;141.30;83.60;;;;;;;11.24;64.26;99532.20;130495;1268;108759;-81
2022/05/28 13:55:00;;;;;;;78.30;51.40;;;;;;;11.51;65.41;99522.88;130555;1268;109037;-82
2022/05/28 13:58:15;;;;;;;13.60;8.90;;;;;;;12.00;65.33;99514.29;130523;1267;108661;-77
2022/05/28 14:01:30;;;;;;;164.30;91.70;;;;;;;12.45;64.66;99508.89;130492;1268;108649;-79
2022/05/28 14:04:44;;;;;;;18.30;10.70;;;;;;;12.87;64.44;99506.96;130408;1268;108791;-78
2022/05/28 14:07:52;;;;;;;44.00;36.10;;;;;;;13.21;63.72;99504.34;131858;1267;108731;-79
2022/05/28 14:11:06;;;;;;;19.60;16.10;;;;;;;13.45;63.86;99503.88;130474;1268;108816;-78
2022/05/28 14:14:19;;;;;;;6.70;4.90;;;;;;;13.77;64.21;99502.21;130464;1268;108780;-80
2022/05/28 14:17:29;;;;;;;7.60;6.00;;;;;;;13.88;63.60;99502.51;130701;1267;108671;-78
2022/05/28 14:20:36;;;;;;;10.70;9.30;;;;;;;13.85;63.52;99500.55;130509;1268;108737;-76
2022/05/28 14:23:47;;;;;;;11.40;10.20;;;;;;;13.87;63.22;99503.16;130412;1268;108690;-73
2022/05/28 14:26:55;;;;;;;4.80;3.40;;;;;;;13.95;63.36;99502.85;130440;1268;108737;-76
2022/05/28 14:30:02;;;;;;;3.00;2.60;;;;;;;13.85;63.25;99493.41;130496;1268;108703;-76
2022/05/28 14:33:13;;;;;;;4.30;2.60;;;;;;;13.76;63.67;99500.98;130305;1268;108771;-76
2022/05/28 14:36:34;;;;;;;8.60;5.90;;;;;;;13.88;63.57;99504.33;130387;1268;108936;-76
2022/05/28 14:39:47;;;;;;;18.40;15.70;;;;;;;14.07;63.84;99502.23;130374;1268;108684;-76
2022/05/28 14:42:58;;;;;;;6.90;3.90;;;;;;;14.17;63.66;99505.80;130478;1268;108624;-76
2022/05/28 14:46:14;;;;;;;5.70;3.70;;;;;;;14.04;63.98;99511.02;130460;1268;108638;-76